Time;durP1;ratioP1;P1;durP2;ratioP2;P2;SDS_P1;SDS_P2;PMS_P1;PMS_P2;Temp;Humidity;BMP_temperature;BMP_pressure;BME280_temperature;BME280_humidity;BME280_pressure;Samples;Min_cycle;Max_cycle;Signal;HPM_P1;HPM_P2
2022/04/13 00:00:11;;;;;;;12.70;8.55;;;14.70;99.90;;;;;;5010445;28;20485;-49
2022/04/13 00:02:37;;;;;;;13.60;8.13;;;14.70;99.90;;;;;;4990480;28;20552;-48
2022/04/13 00:05:03;;;;;;;12.05;7.78;;;14.70;99.90;;;;;;5008649;28;20045;-51
2022/04/13 00:07:29;;;;;;;12.77;8.75;;;14.60;99.90;;;;;;5010235;28;20144;-49
2022/04/13 00:09:55;;;;;;;16.90;8.77;;;14.60;99.90;;;;;;5010255;28;20104;-48
2022/04/13 00:12:21;;;;;;;14.73;8.48;;;14.50;99.90;;;;;;4992492;28;20133;-49
2022/04/13 00:14:47;;;;;;;14.60;8.63;;;14.40;99.90;;;;;;5010433;28;20482;-46
2022/04/13 00:17:13;;;;;;;15.65;8.57;;;14.40;99.90;;;;;;5008676;28;20052;-45
2022/04/13 00:19:38;;;;;;;13.68;7.90;;;14.30;99.90;;;;;;5010060;28;20096;-46
2022/04/13 00:22:04;;;;;;;12.57;8.35;;;14.20;99.90;;;;;;5010176;28;20034;-48
2022/04/13 00:24:30;;;;;;;15.52;8.20;;;14.20;99.90;;;;;;5009994;28;20109;-47
2022/04/13 00:26:57;;;;;;;12.63;7.50;;;14.20;99.90;;;;;;5010330;28;20038;-46
2022/04/13 00:29:24;;;;;;;11.93;7.35;;;14.10;99.90;;;;;;4991832;28;20429;-46
2022/04/13 00:31:51;;;;;;;14.55;7.63;;;14.10;99.90;;;;;;5013317;28;20041;-48
2022/04/13 00:34:17;;;;;;;14.35;7.72;;;14.10;99.90;;;;;;5013775;28;20054;-47
2022/04/13 00:36:43;;;;;;;12.82;7.45;;;14.00;99.90;;;;;;5013772;28;20030;-46
2022/04/13 00:39:08;;;;;;;11.55;7.07;;;13.90;99.90;;;;;;5014088;28;20110;-46
2022/04/13 00:41:34;;;;;;;13.88;7.00;;;13.80;99.90;;;;;;5013667;28;20404;-47
2022/04/13 00:44:10;;;;;;;14.38;7.40;;;13.80;99.90;;;;;;5013829;28;20042;-49
2022/04/13 00:46:36;;;;;;;12.23;7.65;;;13.80;99.90;;;;;;5005515;28;20485;-46
2022/04/13 00:49:04;;;;;;;12.30;7.03;;;13.80;99.90;;;;;;5011055;28;20041;-48
2022/04/13 00:51:30;;;;;;;18.17;7.20;;;13.80;99.90;;;;;;4995786;28;20042;-48
2022/04/13 00:53:58;;;;;;;10.80;7.13;;;13.80;99.90;;;;;;5013164;28;20065;-48
2022/04/13 00:56:27;;;;;;;10.80;6.88;;;13.70;99.90;;;;;;5013359;28;20060;-45
2022/04/13 00:59:04;;;;;;;14.38;7.45;;;13.60;99.90;;;;;;5013700;28;20041;-47
2022/04/13 01:01:30;;;;;;;12.75;7.60;;;13.60;99.90;;;;;;4993974;28;20042;-45
2022/04/13 01:03:57;;;;;;;13.60;7.82;;;13.70;99.90;;;;;;4993593;28;20104;-48
2022/04/13 01:06:24;;;;;;;11.75;7.60;;;13.70;99.90;;;;;;5012802;28;20041;-48
2022/04/13 01:08:50;;;;;;;14.18;7.47;;;13.60;99.90;;;;;;5013161;28;20081;-44
2022/04/13 01:11:17;;;;;;;15.07;7.63;;;13.60;99.90;;;;;;4995468;28;20103;-48
2022/04/13 01:13:43;;;;;;;14.85;7.50;;;13.50;99.90;;;;;;5012890;28;20051;-46
2022/04/13 01:16:09;;;;;;;14.95;7.53;;;13.50;99.90;;;;;;5013315;28;20049;-45
2022/04/13 01:18:34;;;;;;;13.85;7.65;;;13.40;99.90;;;;;;5013285;28;20041;-46
2022/04/13 01:21:01;;;;;;;14.13;7.43;;;13.40;99.90;;;;;;5012829;28;20030;-47
2022/04/13 01:23:27;;;;;;;16.15;8.40;;;13.40;99.90;;;;;;5013042;28;20050;-47
2022/04/13 01:25:54;;;;;;;11.70;7.97;;;13.40;99.90;;;;;;5012866;28;20049;-46
2022/04/13 01:28:21;;;;;;;12.88;7.93;;;13.30;99.90;;;;;;5012941;28;20140;-45
2022/04/13 01:30:47;;;;;;;14.40;7.93;;;13.30;99.90;;;;;;5012974;28;20041;-47
2022/04/13 01:33:14;;;;;;;11.88;8.13;;;13.30;99.90;;;;;;5012945;28;20492;-44
2022/04/13 01:35:40;;;;;;;11.88;7.95;;;13.30;99.90;;;;;;5012888;28;20033;-50
2022/04/13 01:38:06;;;;;;;12.75;8.00;;;13.20;99.90;;;;;;5013041;28;20442;-47
2022/04/13 01:40:33;;;;;;;14.55;8.25;;;13.20;99.90;;;;;;5012951;28;20034;-49
2022/04/13 01:42:58;;;;;;;13.40;8.52;;;13.20;99.90;;;;;;5011725;28;20255;-47
2022/04/13 01:45:24;;;;;;;13.90;8.65;;;13.10;99.90;;;;;;5012828;28;20044;-46
2022/04/13 01:47:51;;;;;;;14.55;8.48;;;13.10;99.90;;;;;;5010435;28;20080;-45
2022/04/13 01:50:20;;;;;;;14.63;8.20;;;13.10;99.90;;;;;;5011946;28;20100;-46
2022/04/13 01:52:46;;;;;;;12.98;8.07;;;13.10;99.90;;;;;;5012084;28;20058;-50
2022/04/13 01:55:13;;;;;;;13.93;8.50;;;13.10;99.90;;;;;;5012069;28;20048;-47
2022/04/13 01:57:39;;;;;;;13.18;8.13;;;13.10;99.90;;;;;;5012536;28;20354;-48
2022/04/13 02:00:07;;;;;;;12.70;8.40;;;13.10;99.90;;;;;;5012158;28;20048;-47
2022/04/13 02:02:33;;;;;;;15.10;8.25;;;13.00;99.90;;;;;;5011483;28;20034;-48
2022/04/13 02:04:59;;;;;;;15.65;9.00;;;13.00;99.90;;;;;;5012093;28;20115;-45
2022/04/13 02:07:26;;;;;;;14.73;8.77;;;13.00;99.90;;;;;;5012210;28;20057;-47
2022/04/13 02:09:53;;;;;;;13.45;8.48;;;13.00;99.90;;;;;;4994283;28;20045;-47
2022/04/13 02:12:19;;;;;;;16.80;8.32;;;12.90;99.90;;;;;;4993922;28;21317;-48
2022/04/13 02:14:44;;;;;;;15.93;8.63;;;12.90;99.90;;;;;;5011888;28;20091;-47
2022/04/13 02:17:14;;;;;;;14.40;8.75;;;12.80;99.90;;;;;;5012000;28;20037;-45
2022/04/13 02:19:40;;;;;;;18.25;8.98;;;12.80;99.90;;;;;;4991821;28;20041;-48
2022/04/13 02:22:08;;;;;;;21.90;12.15;;;12.80;99.90;;;;;;5000942;28;20072;-47
2022/04/13 02:24:39;;;;;;;19.85;11.52;;;12.90;99.90;;;;;;4993568;28;20042;-49
2022/04/13 02:27:07;;;;;;;18.65;10.55;;;13.00;99.90;;;;;;5011306;28;20046;-47
2022/04/13 02:29:34;;;;;;;19.25;11.75;;;12.90;99.90;;;;;;5011750;28;20504;-50
2022/04/13 02:32:01;;;;;;;19.80;11.15;;;12.90;99.90;;;;;;5011794;28;20038;-46
2022/04/13 02:34:26;;;;;;;17.02;10.85;;;12.90;99.90;;;;;;5011653;28;20044;-46
2022/04/13 02:36:52;;;;;;;19.40;10.90;;;12.80;99.90;;;;;;4994191;28;20493;-47
2022/04/13 02:39:18;;;;;;;15.40;10.43;;;12.70;99.90;;;;;;5011796;28;20045;-48
2022/04/13 02:41:43;;;;;;;16.60;10.82;;;12.70;99.90;;;;;;5011659;28;20038;-45
2022/04/13 02:44:09;;;;;;;22.73;11.45;;;12.70;99.90;;;;;;5011758;28;20034;-46
2022/04/13 02:46:35;;;;;;;19.00;11.27;;;12.60;99.90;;;;;;5011632;28;20092;-47
2022/04/13 02:49:01;;;;;;;19.48;12.10;;;12.60;99.90;;;;;;5011532;28;20057;-47
2022/04/13 02:51:26;;;;;;;20.58;12.23;;;12.50;99.90;;;;;;5011152;28;20519;-48
2022/04/13 02:53:52;;;;;;;23.25;13.25;;;12.50;99.90;;;;;;5010632;28;20057;-47
2022/04/13 02:56:18;;;;;;;24.63;13.50;;;12.40;99.90;;;;;;5011036;28;20053;-45
2022/04/13 02:58:43;;;;;;;20.00;13.45;;;12.30;99.90;;;;;;4991550;28;20031;-46
2022/04/13 03:01:09;;;;;;;20.58;13.90;;;12.30;99.90;;;;;;4991540;28;20038;-47
2022/04/13 03:03:35;;;;;;;20.73;12.95;;;12.30;99.90;;;;;;5010605;28;20041;-45
2022/04/13 03:06:01;;;;;;;20.25;12.43;;;12.40;99.90;;;;;;5010931;28;20040;-46
2022/04/13 03:08:27;;;;;;;18.80;12.30;;;12.20;99.90;;;;;;5011250;28;20046;-46
2022/04/13 03:10:53;;;;;;;27.40;14.40;;;12.10;99.90;;;;;;5010936;28;20500;-49
2022/04/13 03:13:18;;;;;;;20.85;13.55;;;12.10;99.90;;;;;;5011020;28;20129;-46
2022/04/13 03:15:44;;;;;;;22.85;14.70;;;12.10;99.90;;;;;;5011117;28;20496;-46
2022/04/13 03:18:10;;;;;;;23.95;14.77;;;12.10;99.90;;;;;;5011036;28;20046;-49
2022/04/13 03:20:35;;;;;;;23.65;15.52;;;12.00;99.90;;;;;;5010868;28;20079;-48
2022/04/13 03:23:02;;;;;;;20.27;13.93;;;12.00;99.90;;;;;;5010673;28;20044;-44
2022/04/13 03:25:28;;;;;;;26.77;14.77;;;12.00;99.90;;;;;;5010630;28;20037;-47
2022/04/13 03:27:54;;;;;;;24.15;13.65;;;12.00;99.90;;;;;;5010833;28;20046;-48
2022/04/13 03:30:22;;;;;;;24.52;14.45;;;11.90;99.90;;;;;;5011059;28;20531;-48
2022/04/13 03:32:50;;;;;;;26.80;15.35;;;11.90;99.90;;;;;;5010634;28;20048;-47
2022/04/13 03:35:15;;;;;;;23.42;14.70;;;11.90;99.90;;;;;;5010804;28;20056;-47
2022/04/13 03:37:41;;;;;;;27.00;15.43;;;11.90;99.90;;;;;;5010886;28;20042;-46
2022/04/13 03:40:09;;;;;;;22.88;15.10;;;11.90;99.90;;;;;;5010878;28;20124;-48
2022/04/13 03:42:39;;;;;;;28.58;15.63;;;11.90;99.90;;;;;;4991321;28;20061;-45
2022/04/13 03:45:06;;;;;;;27.80;15.48;;;11.80;99.90;;;;;;5010335;28;20525;-45
2022/04/13 03:47:32;;;;;;;23.45;15.38;;;11.80;99.90;;;;;;4992736;28;20041;-49
2022/04/13 03:49:58;;;;;;;29.25;16.13;;;11.70;99.90;;;;;;5010230;28;20041;-50
2022/04/13 03:52:25;;;;;;;27.65;16.58;;;11.70;99.90;;;;;;5008644;28;20100;-45
2022/04/13 03:54:51;;;;;;;30.80;16.80;;;11.80;99.90;;;;;;5010238;28;20057;-48
2022/04/13 03:57:17;;;;;;;28.35;16.25;;;11.70;99.90;;;;;;5009433;28;20486;-46
2022/04/13 03:59:42;;;;;;;27.00;15.10;;;11.70;99.90;;;;;;5009258;28;20088;-47
2022/04/13 04:02:08;;;;;;;24.60;15.57;;;11.60;99.90;;;;;;5010242;28;20045;-48
2022/04/13 04:04:34;;;;;;;26.10;15.80;;;11.60;99.90;;;;;;5010644;28;20037;-49
2022/04/13 04:06:59;;;;;;;26.05;15.13;;;11.60;99.90;;;;;;5013970;28;20045;-48
2022/04/13 04:09:25;;;;;;;28.77;16.23;;;11.60;99.90;;;;;;5014274;28;20515;-45
2022/04/13 04:11:51;;;;;;;24.25;16.40;;;11.50;99.90;;;;;;5014505;28;20100;-46
2022/04/13 04:14:16;;;;;;;26.35;15.70;;;11.40;99.90;;;;;;5014304;28;20156;-49
2022/04/13 04:16:42;;;;;;;24.77;16.80;;;11.40;99.90;;;;;;5014397;28;20033;-48
2022/04/13 04:19:08;;;;;;;26.83;17.23;;;11.50;99.90;;;;;;5014153;28;20184;-45
2022/04/13 04:21:34;;;;;;;29.88;18.15;;;11.50;99.90;;;;;;5014151;28;20038;-46
2022/04/13 04:24:00;;;;;;;27.88;17.15;;;11.50;99.90;;;;;;5014214;28;20112;-51
2022/04/13 04:26:26;;;;;;;28.30;17.63;;;11.50;99.90;;;;;;5014172;28;20117;-49
2022/04/13 04:28:51;;;;;;;26.65;17.38;;;11.50;99.90;;;;;;5014326;28;20613;-47
2022/04/13 04:31:49;;;;;;;30.08;17.73;;;11.50;99.90;;;;;;5013723;28;20063;-46
2022/04/13 04:34:02;;;;;;;27.42;17.77;;;11.60;99.90;;;;;;5012721;28;20541;-46
2022/04/13 04:36:28;;;;;;;28.00;17.70;;;11.50;99.90;;;;;;5014113;28;20129;-47
2022/04/13 04:38:54;;;;;;;25.30;17.17;;;11.50;99.90;;;;;;5013712;28;20030;-47
2022/04/13 04:41:19;;;;;;;26.73;16.83;;;11.50;99.90;;;;;;5013692;28;20042;-45
2022/04/13 04:43:45;;;;;;;27.48;16.42;;;11.50;99.90;;;;;;5014230;28;20038;-46
2022/04/13 04:46:12;;;;;;;25.05;16.35;;;11.40;99.90;;;;;;5013933;28;20301;-47
2022/04/13 04:48:42;;;;;;;25.67;15.95;;;11.40;99.90;;;;;;5013619;28;20050;-46
2022/04/13 04:51:10;;;;;;;24.50;15.73;;;11.40;99.90;;;;;;5013204;28;20045;-46
2022/04/13 04:53:37;;;;;;;23.48;15.05;;;11.40;99.90;;;;;;5013584;28;20061;-48
2022/04/13 04:56:02;;;;;;;28.45;14.80;;;11.40;99.90;;;;;;5013865;28;20083;-45
2022/04/13 04:58:28;;;;;;;26.05;15.30;;;11.40;99.90;;;;;;5013523;28;20122;-45
2022/04/13 05:00:54;;;;;;;23.60;15.40;;;11.40;99.90;;;;;;5013297;28;20038;-46
2022/04/13 05:03:20;;;;;;;28.95;15.35;;;11.40;99.90;;;;;;5013628;28;20046;-46
2022/04/13 05:05:45;;;;;;;23.55;14.35;;;11.50;99.90;;;;;;5012996;28;20038;-49
2022/04/13 05:08:13;;;;;;;22.55;14.52;;;11.50;99.90;;;;;;5013426;28;20108;-49
2022/04/13 05:10:40;;;;;;;21.13;14.77;;;11.40;99.90;;;;;;5013529;28;20421;-49
2022/04/13 05:13:06;;;;;;;26.67;14.40;;;11.40;99.90;;;;;;4995824;28;20493;-46
2022/04/13 05:15:32;;;;;;;23.85;14.57;;;11.40;99.90;;;;;;5012882;28;20054;-46
2022/04/13 05:17:58;;;;;;;23.50;14.40;;;11.40;99.90;;;;;;5010995;28;20035;-49
2022/04/13 05:20:23;;;;;;;21.38;13.82;;;11.30;99.90;;;;;;5012823;28;20104;-47
2022/04/13 05:22:49;;;;;;;21.33;13.90;;;11.30;99.90;;;;;;5013192;28;20056;-46
2022/04/13 05:25:16;;;;;;;20.92;13.10;;;11.30;99.90;;;;;;5012843;28;20044;-50
2022/04/13 05:27:42;;;;;;;17.83;12.93;;;11.30;99.90;;;;;;5009852;28;20577;-47
2022/04/13 05:30:10;;;;;;;22.00;13.45;;;11.20;99.90;;;;;;5012571;28;20466;-47
2022/04/13 05:33:06;;;;;;;22.35;13.02;;;11.20;99.90;;;;;;5012753;28;20037;-49
2022/04/13 05:35:32;;;;;;;21.95;13.18;;;11.20;99.90;;;;;;4995979;28;20538;-48
2022/04/13 05:37:59;;;;;;;22.35;13.50;;;11.20;99.90;;;;;;5012726;28;20429;-48
2022/04/13 05:40:25;;;;;;;21.50;12.90;;;11.20;99.90;;;;;;5012912;28;20473;-45
2022/04/13 05:42:53;;;;;;;19.25;13.27;;;11.20;99.90;;;;;;5012940;28;20077;-44
2022/04/13 05:45:18;;;;;;;21.00;14.13;;;11.20;99.90;;;;;;5013140;28;20045;-48
2022/04/13 05:47:44;;;;;;;19.70;12.65;;;11.20;99.90;;;;;;5012797;28;20037;-46
2022/04/13 05:50:14;;;;;;;22.70;13.98;;;11.30;99.90;;;;;;5012062;28;20554;-49
2022/04/13 05:52:41;;;;;;;24.20;12.80;;;11.30;99.90;;;;;;5012543;28;20045;-46
2022/04/13 05:55:08;;;;;;;21.80;13.75;;;11.40;99.90;;;;;;5012408;28;20049;-46
2022/04/13 05:57:34;;;;;;;21.38;12.43;;;11.40;99.90;;;;;;5012179;28;20107;-46
2022/04/13 06:00:00;;;;;;;20.42;11.85;;;11.50;99.90;;;;;;5012952;28;20385;-48
2022/04/13 06:02:26;;;;;;;23.33;13.15;;;11.60;99.90;;;;;;5012484;28;20037;-45
2022/04/13 06:04:51;;;;;;;21.75;12.38;;;11.70;99.90;;;;;;5012454;28;20441;-46
2022/04/13 06:07:18;;;;;;;19.38;12.52;;;11.70;99.90;;;;;;5012100;28;20137;-46
2022/04/13 06:09:43;;;;;;;22.23;12.60;;;11.70;99.90;;;;;;5011958;28;20034;-44
2022/04/13 06:12:09;;;;;;;20.75;12.35;;;11.80;99.90;;;;;;5012463;28;20576;-46
2022/04/13 06:14:35;;;;;;;20.13;12.00;;;11.80;99.90;;;;;;5012341;28;20045;-46
2022/04/13 06:17:01;;;;;;;18.05;12.07;;;11.90;99.90;;;;;;4994336;28;20452;-45
2022/04/13 06:19:26;;;;;;;20.08;12.68;;;11.90;99.90;;;;;;5011999;28;20393;-46
2022/04/13 06:21:52;;;;;;;24.98;13.27;;;12.00;99.90;;;;;;5011990;28;20037;-48
2022/04/13 06:24:18;;;;;;;18.92;12.57;;;12.10;99.90;;;;;;5012157;28;20069;-46
2022/04/13 06:26:43;;;;;;;20.33;12.07;;;12.10;99.90;;;;;;5012222;28;20045;-46
2022/04/13 06:29:09;;;;;;;21.55;12.00;;;12.10;99.90;;;;;;5011487;28;20473;-47
2022/04/13 06:31:35;;;;;;;19.45;12.32;;;12.20;99.90;;;;;;5011741;28;20046;-44
2022/04/13 06:34:01;;;;;;;18.40;12.13;;;12.20;99.90;;;;;;5011717;28;20054;-46
2022/04/13 06:36:27;;;;;;;19.48;12.50;;;12.20;99.90;;;;;;5011777;28;20038;-46
2022/04/13 06:38:52;;;;;;;20.90;12.40;;;12.30;99.90;;;;;;5011846;28;20041;-47
2022/04/13 06:41:20;;;;;;;16.50;12.27;;;12.40;99.90;;;;;;5011666;28;20068;-50
2022/04/13 06:43:47;;;;;;;24.67;12.82;;;12.40;99.90;;;;;;5011805;28;20062;-48
2022/04/13 06:46:13;;;;;;;20.77;13.13;;;12.40;99.90;;;;;;5011485;28;20085;-48
2022/04/13 06:48:39;;;;;;;18.63;12.65;;;12.50;99.90;;;;;;5011468;28;20053;-47
2022/04/13 06:51:05;;;;;;;18.75;12.38;;;12.60;99.90;;;;;;5010465;28;20030;-47
2022/04/13 06:53:31;;;;;;;22.65;12.02;;;12.70;99.90;;;;;;5005427;28;20064;-47
2022/04/13 06:55:56;;;;;;;17.65;10.70;;;12.80;99.90;;;;;;5011341;28;20046;-48
2022/04/13 06:58:22;;;;;;;19.75;12.57;;;12.90;99.90;;;;;;5011476;28;20033;-46
2022/04/13 07:00:48;;;;;;;20.05;13.02;;;12.90;99.90;;;;;;5007965;28;20030;-45
2022/04/13 07:03:14;;;;;;;18.33;11.70;;;13.00;99.90;;;;;;5008580;28;20485;-46
2022/04/13 07:05:40;;;;;;;19.20;11.07;;;13.00;99.90;;;;;;5004870;28;20044;-48
2022/04/13 07:08:06;;;;;;;19.30;12.10;;;13.00;99.90;;;;;;5002480;28;20037;-45
2022/04/13 07:10:33;;;;;;;22.38;12.05;;;13.10;99.90;;;;;;5002930;28;20116;-47
2022/04/13 07:13:00;;;;;;;19.55;11.82;;;13.10;99.90;;;;;;4984328;28;21390;-47
2022/04/13 07:15:26;;;;;;;23.75;12.43;;;13.20;99.90;;;;;;5000379;28;20055;-48
2022/04/13 07:17:52;;;;;;;27.33;11.85;;;13.30;99.90;;;;;;5001088;28;20050;-47
2022/04/13 07:20:18;;;;;;;20.92;11.50;;;13.40;99.90;;;;;;5002498;28;20175;-50
2022/04/13 07:22:48;;;;;;;16.33;9.88;;;13.40;99.90;;;;;;5001711;28;20124;-45
2022/04/13 07:25:15;;;;;;;20.05;10.63;;;13.50;99.90;;;;;;5002181;28;20132;-45
2022/04/13 07:27:41;;;;;;;18.98;10.93;;;13.60;99.90;;;;;;5001855;28;20513;-46
2022/04/13 07:30:08;;;;;;;21.60;10.90;;;13.60;99.90;;;;;;5001888;28;20042;-46
2022/04/13 07:32:33;;;;;;;21.88;10.80;;;13.60;99.90;;;;;;4998930;28;20038;-46
2022/04/13 07:35:00;;;;;;;20.33;10.73;;;13.70;99.90;;;;;;4990859;28;20045;-47
2022/04/13 07:37:26;;;;;;;15.55;10.55;;;13.70;99.90;;;;;;4989817;28;20052;-47
2022/04/13 07:39:52;;;;;;;18.05;10.13;;;13.80;99.90;;;;;;4989133;28;20034;-46
2022/04/13 07:42:26;;;;;;;18.23;10.25;;;13.80;99.90;;;;;;4987486;28;20033;-46
2022/04/13 07:44:52;;;;;;;15.73;9.98;;;13.80;99.90;;;;;;5002059;28;20121;-49
2022/04/13 07:47:20;;;;;;;18.88;10.13;;;13.90;99.90;;;;;;5002073;28;20034;-47
2022/04/13 07:49:47;;;;;;;16.27;10.18;;;13.90;99.90;;;;;;5000854;28;20029;-48
2022/04/13 07:52:13;;;;;;;20.80;10.88;;;13.90;99.90;;;;;;5000812;28;20138;-48
2022/04/13 07:54:39;;;;;;;20.25;10.52;;;13.90;99.90;;;;;;4985927;28;20517;-47
2022/04/13 07:57:05;;;;;;;22.27;11.30;;;13.90;99.90;;;;;;4983679;28;20058;-46
2022/04/13 07:59:31;;;;;;;21.27;10.70;;;13.90;99.90;;;;;;4981416;28;20085;-46
2022/04/13 08:01:57;;;;;;;16.55;9.75;;;13.90;99.90;;;;;;4981952;28;20096;-50
2022/04/13 08:04:23;;;;;;;19.00;10.85;;;14.00;99.90;;;;;;4982714;28;20490;-45
2022/04/13 08:06:48;;;;;;;18.05;9.75;;;14.20;99.90;;;;;;4982979;28;20099;-46
2022/04/13 08:09:14;;;;;;;17.83;9.68;;;14.20;99.90;;;;;;4981807;28;20030;-46
2022/04/13 08:11:40;;;;;;;20.40;9.60;;;14.30;99.90;;;;;;4981556;28;20042;-50
2022/04/13 08:14:06;;;;;;;16.27;9.15;;;14.40;99.90;;;;;;4981576;28;20212;-48
2022/04/13 08:16:31;;;;;;;17.40;8.70;;;14.50;99.90;;;;;;4982551;28;20984;-48
2022/04/13 08:18:58;;;;;;;16.98;8.43;;;14.60;99.90;;;;;;4964274;28;20069;-47
2022/04/13 08:21:23;;;;;;;17.23;8.82;;;14.60;99.90;;;;;;4981660;28;20061;-46
2022/04/13 08:23:49;;;;;;;16.00;8.63;;;14.70;99.90;;;;;;4981961;28;20085;-48
2022/04/13 08:26:15;;;;;;;15.10;8.65;;;14.70;99.90;;;;;;4981611;28;20050;-47
2022/04/13 08:28:41;;;;;;;14.20;8.88;;;14.90;99.90;;;;;;4982841;28;20044;-46
2022/04/13 08:31:09;;;;;;;11.32;7.78;;;15.00;99.90;;;;;;4981856;28;20035;-45
2022/04/13 08:33:38;;;;;;;14.73;8.85;;;14.80;99.90;;;;;;4982311;28;20441;-47
2022/04/13 08:36:04;;;;;;;14.05;8.88;;;14.80;99.90;;;;;;4981460;28;20502;-45
2022/04/13 08:38:29;;;;;;;17.08;9.18;;;14.30;99.90;;;;;;4976271;28;20187;-49
2022/04/13 08:41:02;;;;;;;17.10;9.57;;;14.70;99.90;;;;;;4979107;28;20039;-47
2022/04/13 08:43:39;;;;;;;14.02;9.07;;;14.80;99.90;;;;;;4978180;28;20494;-48
2022/04/13 08:46:09;;;;;;;17.77;9.95;;;14.90;99.90;;;;;;4980583;28;20030;-45
2022/04/13 08:48:40;;;;;;;12.63;8.93;;;14.90;99.90;;;;;;4962523;28;20065;-47
2022/04/13 08:51:08;;;;;;;14.98;9.90;;;15.10;99.90;;;;;;4977034;28;20076;-44
2022/04/13 08:53:35;;;;;;;17.15;9.18;;;15.20;99.90;;;;;;4986407;28;20455;-46
2022/04/13 08:56:03;;;;;;;18.77;9.75;;;15.20;99.90;;;;;;5002533;28;20046;-48
2022/04/13 08:58:51;;;;;;;19.40;9.52;;;15.20;99.90;;;;;;5003422;28;20465;-45
2022/04/13 09:01:29;;;;;;;17.75;9.15;;;15.40;99.90;;;;;;5002472;28;20092;-45
2022/04/13 09:04:00;;;;;;;16.40;10.20;;;15.30;99.90;;;;;;5002792;28;20034;-47
2022/04/13 09:06:28;;;;;;;17.48;9.48;;;15.30;99.90;;;;;;5001140;28;20497;-44
2022/04/13 09:08:58;;;;;;;18.23;9.57;;;15.40;99.90;;;;;;5001171;28;20360;-47
2022/04/13 09:11:24;;;;;;;19.15;9.77;;;15.60;99.90;;;;;;5002200;28;20038;-44
2022/04/13 09:13:51;;;;;;;16.70;10.20;;;15.60;99.90;;;;;;5001114;28;20058;-45
2022/04/13 09:16:17;;;;;;;17.40;10.18;;;15.50;99.90;;;;;;5002982;28;20046;-48
2022/04/13 09:18:43;;;;;;;16.60;10.10;;;15.60;99.90;;;;;;5002548;28;20061;-48
2022/04/13 09:21:12;;;;;;;16.20;9.75;;;15.70;99.90;;;;;;5002545;28;20143;-46
2022/04/13 09:23:38;;;;;;;16.65;9.55;;;15.70;99.90;;;;;;4999732;28;20042;-47
2022/04/13 09:26:05;;;;;;;17.60;9.02;;;15.90;99.90;;;;;;5001530;28;20078;-45
2022/04/13 09:28:31;;;;;;;14.30;9.35;;;15.90;99.90;;;;;;5002773;28;20029;-45
2022/04/13 09:30:57;;;;;;;16.45;9.02;;;15.90;99.90;;;;;;4999535;28;20351;-46
2022/04/13 09:33:23;;;;;;;19.58;9.30;;;16.20;99.90;;;;;;5001564;28;20034;-48
2022/04/13 09:35:49;;;;;;;16.20;8.57;;;16.20;99.90;;;;;;5001296;28;20482;-47
2022/04/13 09:38:16;;;;;;;15.85;7.50;;;16.30;99.90;;;;;;5000419;28;20066;-47
2022/04/13 09:40:42;;;;;;;12.75;6.18;;;16.40;99.90;;;;;;5002210;28;20485;-47
2022/04/13 09:43:10;;;;;;;11.68;6.47;;;16.50;99.90;;;;;;5001324;28;20583;-49
2022/04/13 09:45:44;;;;;;;14.43;6.80;;;16.90;99.90;;;;;;4999908;28;20176;-44
2022/04/13 09:48:12;;;;;;;15.77;6.93;;;16.70;99.90;;;;;;4993311;28;20711;-48
2022/04/13 09:50:39;;;;;;;12.77;7.22;;;16.60;99.90;;;;;;4991159;28;20130;-45
2022/04/13 09:53:06;;;;;;;12.07;7.40;;;16.80;99.90;;;;;;4991209;28;20022;-45
2022/04/13 09:55:43;;;;;;;13.05;7.60;;;16.90;99.90;;;;;;4991613;28;20518;-46
2022/04/13 09:58:14;;;;;;;14.13;8.40;;;17.10;99.90;;;;;;4994345;28;20034;-46
2022/04/13 10:00:41;;;;;;;11.48;7.93;;;17.00;99.90;;;;;;5001284;28;20042;-47
2022/04/13 10:03:25;;;;;;;14.93;7.30;;;16.80;99.90;;;;;;5002365;28;20421;-47
2022/04/13 10:05:53;;;;;;;11.30;6.13;;;17.10;99.90;;;;;;5004524;28;20108;-49
2022/04/13 10:08:22;;;;;;;12.88;6.70;;;17.20;99.90;;;;;;5003897;28;20057;-45
2022/04/13 10:10:50;;;;;;;14.70;6.38;;;17.60;99.90;;;;;;4982301;28;20070;-47
2022/04/13 10:13:39;;;;;;;10.93;5.80;;;17.40;99.90;;;;;;5004242;28;20048;-50
2022/04/13 10:16:05;;;;;;;14.20;6.70;;;17.60;99.90;;;;;;5004225;28;20073;-46
2022/04/13 10:18:53;;;;;;;9.68;5.53;;;17.90;99.90;;;;;;5005109;28;20436;-47
2022/04/13 10:21:45;;;;;;;15.38;7.15;;;17.80;99.90;;;;;;5002901;28;20040;-45
2022/04/13 10:24:21;;;;;;;10.63;6.38;;;17.80;99.90;;;;;;5006144;28;20137;-46
2022/04/13 10:27:10;;;;;;;12.52;7.25;;;17.90;99.90;;;;;;5005563;28;20511;-43
2022/04/13 10:29:41;;;;;;;11.95;5.78;;;18.20;99.90;;;;;;5006692;28;20033;-48
2022/04/13 10:32:09;;;;;;;12.80;5.45;;;18.20;99.90;;;;;;5008261;28;20034;-47
2022/04/13 10:34:52;;;;;;;9.63;5.18;;;18.30;99.90;;;;;;5005488;28;20038;-45
2022/04/13 10:37:20;;;;;;;10.18;4.28;;;18.20;99.90;;;;;;5007463;28;20639;-46
2022/04/13 10:39:52;;;;;;;10.07;4.45;;;18.30;99.90;;;;;;5004629;28;20033;-47
2022/04/13 10:42:20;;;;;;;7.55;3.60;;;18.10;99.90;;;;;;5004823;28;20421;-47
2022/04/13 10:45:15;;;;;;;8.80;3.63;;;17.80;99.90;;;;;;5005041;28;20034;-45
2022/04/13 10:47:57;;;;;;;11.52;4.43;;;17.80;99.90;;;;;;4995392;28;20053;-46
2022/04/13 10:50:45;;;;;;;12.38;5.47;;;18.00;99.90;;;;;;5004070;28;20114;-47
2022/04/13 10:53:23;;;;;;;16.50;5.80;;;18.00;99.90;;;;;;5004631;28;20080;-47
2022/04/13 10:56:11;;;;;;;14.00;6.43;;;18.00;99.90;;;;;;5004429;28;20046;-46
2022/04/13 10:58:49;;;;;;;11.30;6.32;;;17.90;99.90;;;;;;5003586;28;20037;-47
2022/04/13 11:01:19;;;;;;;14.73;6.07;;;18.00;99.90;;;;;;5005453;28;20547;-49
2022/04/13 11:03:47;;;;;;;13.10;6.05;;;18.00;99.90;;;;;;5009045;28;20049;-49
2022/04/13 11:06:13;;;;;;;13.25;6.65;;;17.80;99.90;;;;;;5009629;28;20430;-49
2022/04/13 11:09:00;;;;;;;13.18;6.20;;;17.90;99.90;;;;;;5007113;28;20038;-47
2022/04/13 11:11:29;;;;;;;14.30;7.28;;;17.90;99.90;;;;;;5007082;28;20466;-45
2022/04/13 11:13:55;;;;;;;13.00;7.68;;;17.90;99.90;;;;;;5002283;28;20489;-46
2022/04/13 11:16:25;;;;;;;12.57;7.18;;;17.80;99.90;;;;;;5002374;28;20037;-46
2022/04/13 11:19:17;;;;;;;11.27;7.38;;;17.70;99.90;;;;;;5002059;28;20039;-46
2022/04/13 11:21:52;;;;;;;12.75;6.93;;;17.60;99.90;;;;;;5000126;28;20030;-45
2022/04/13 11:24:35;;;;;;;13.90;7.72;;;17.50;99.90;;;;;;4997516;28;20053;-45
2022/04/13 11:27:02;;;;;;;15.40;8.32;;;17.40;99.90;;;;;;4998842;28;20049;-46
2022/04/13 11:29:36;;;;;;;13.98;7.40;;;17.40;99.90;;;;;;5000450;28;20041;-48
2022/04/13 11:32:02;;;;;;;14.02;6.50;;;17.30;99.90;;;;;;5001316;28;20041;-47
2022/04/13 11:34:45;;;;;;;15.75;7.15;;;17.30;99.90;;;;;;5001100;28;20086;-45
2022/04/13 11:37:41;;;;;;;13.07;6.60;;;17.30;99.90;;;;;;5000513;28;20049;-48
2022/04/13 11:40:10;;;;;;;12.77;6.95;;;17.20;99.90;;;;;;5000757;28;20033;-44
2022/04/13 11:42:39;;;;;;;12.88;6.15;;;17.10;99.90;;;;;;4998966;28;20163;-48
2022/04/13 11:45:16;;;;;;;13.35;7.53;;;17.10;99.90;;;;;;4999961;28;20041;-44
2022/04/13 11:47:53;;;;;;;16.20;7.88;;;17.10;99.90;;;;;;5000475;28;20040;-45
2022/04/13 11:50:22;;;;;;;17.35;7.90;;;17.10;99.90;;;;;;4998108;28;20034;-46
2022/04/13 11:53:00;;;;;;;16.20;7.10;;;17.20;99.90;;;;;;4997037;28;20239;-47
2022/04/13 11:55:26;;;;;;;12.80;6.50;;;17.40;99.90;;;;;;4981116;28;20585;-45
2022/04/13 11:58:04;;;;;;;13.10;5.45;;;17.40;99.90;;;;;;4997543;28;20053;-46
2022/04/13 12:00:43;;;;;;;13.02;5.03;;;17.40;99.90;;;;;;4998438;28;20493;-47
2022/04/13 12:03:18;;;;;;;14.63;5.85;;;17.40;99.90;;;;;;5000695;28;20042;-47
2022/04/13 12:05:53;;;;;;;12.73;4.97;;;17.30;99.90;;;;;;4994389;28;20371;-45
2022/04/13 12:08:22;;;;;;;11.50;4.03;;;17.10;99.90;;;;;;5006897;28;20441;-46
2022/04/13 12:10:50;;;;;;;11.88;4.53;;;16.90;99.90;;;;;;5009738;28;20038;-49
2022/04/13 12:13:16;;;;;;;14.30;5.65;;;16.80;99.90;;;;;;5010194;28;20555;-48
2022/04/13 12:15:50;;;;;;;11.55;5.25;;;16.60;99.90;;;;;;5010066;28;20044;-49
2022/04/13 12:18:16;;;;;;;13.63;5.75;;;16.50;99.90;;;;;;5010120;28;20520;-48
2022/04/13 12:20:43;;;;;;;13.70;5.47;;;16.50;99.90;;;;;;5009764;28;20366;-46
2022/04/13 12:23:20;;;;;;;15.38;5.10;;;16.40;99.90;;;;;;5010068;28;20045;-47
2022/04/13 12:25:48;;;;;;;14.48;5.00;;;16.50;99.90;;;;;;5010216;28;20084;-46
2022/04/13 12:28:15;;;;;;;13.15;4.53;;;16.60;99.90;;;;;;5013838;28;20508;-46
2022/04/13 12:30:41;;;;;;;14.55;4.30;;;16.50;99.90;;;;;;5014085;28;20049;-44
2022/04/13 12:33:14;;;;;;;13.82;4.40;;;16.60;99.90;;;;;;5013631;28;20117;-47
2022/04/13 12:35:47;;;;;;;11.80;4.32;;;16.60;99.90;;;;;;5013856;28;20117;-47
2022/04/13 12:38:34;;;;;;;13.60;4.78;;;16.70;99.90;;;;;;5013704;28;20053;-47